Time;durP1;ratioP1;P1;durP2;ratioP2;P2;SDS_P1;SDS_P2;PMS_P1;PMS_P2;Temp;Humidity;BMP_temperature;BMP_pressure;BME280_temperature;BME280_humidity;BME280_pressure;Samples;Min_cycle;Max_cycle;Signal;HPM_P1;HPM_P2
2022/11/06 00:00:52;;;;;;;18.30;8.30;;;;;;;9.14;85.98;100311.46;101316;1298;138436;-84
2022/11/06 00:03:19;;;;;;;18.30;8.10;;;;;;;9.12;85.96;100317.05;101419;1296;107392;-86
2022/11/06 00:08:36;;;;;;;18.20;8.20;;;;;;;9.06;85.82;100325.89;101323;1298;138315;-86
2022/11/06 00:11:07;;;;;;;18.60;8.30;;;;;;;9.03;85.81;100335.15;101413;1292;107153;-86
2022/11/06 00:13:34;;;;;;;16.90;8.50;;;;;;;9.00;85.79;100335.92;101326;1298;138822;-86
2022/11/06 00:16:05;;;;;;;18.70;8.70;;;;;;;8.98;85.82;100336.30;101407;1292;107644;-87
2022/11/06 00:18:32;;;;;;;17.50;8.30;;;;;;;8.95;85.78;100337.58;101411;1290;96021;-85
2022/11/06 00:21:00;;;;;;;19.50;8.60;;;;;;;8.92;85.73;100337.15;101342;1283;138350;-86
2022/11/06 00:23:27;;;;;;;17.70;9.10;;;;;;;8.88;85.70;100338.13;101391;1287;107497;-86
2022/11/06 00:25:55;;;;;;;20.20;8.90;;;;;;;8.85;85.82;100339.23;101327;1296;139360;-85
2022/11/06 00:28:22;;;;;;;17.60;8.40;;;;;;;8.83;85.82;100337.39;101424;1289;107627;-86
2022/11/06 00:30:49;;;;;;;17.50;9.00;;;;;;;8.81;85.97;100339.51;101373;1296;95717;-86
2022/11/06 00:33:16;;;;;;;19.50;9.60;;;;;;;8.79;85.87;100340.21;101432;1296;111525;-85
2022/11/06 00:35:43;;;;;;;19.30;9.70;;;;;;;8.76;85.78;100346.36;101417;1297;105888;-85
2022/11/06 00:38:11;;;;;;;24.10;10.10;;;;;;;8.73;85.84;100354.58;101231;1291;138371;-85
2022/11/06 00:40:38;;;;;;;21.40;9.80;;;;;;;8.72;85.92;100357.04;101459;1289;107399;-86
2022/11/06 00:43:05;;;;;;;19.70;9.80;;;;;;;8.69;85.99;100360.39;101304;1290;139868;-87
2022/11/06 00:45:32;;;;;;;17.80;9.40;;;;;;;8.70;85.98;100361.08;101429;1298;111071;-87
2022/11/06 00:47:59;;;;;;;20.80;10.20;;;;;;;8.68;85.90;100359.73;101355;1292;107387;-86
2022/11/06 00:50:26;;;;;;;24.10;10.50;;;;;;;8.68;85.93;100368.05;101311;1291;140456;-87
2022/11/06 00:52:53;;;;;;;20.80;10.30;;;;;;;8.66;85.82;100371.22;101448;1297;107526;-84
2022/11/06 00:55:20;;;;;;;17.90;10.40;;;;;;;8.65;85.81;100372.12;101353;1294;138684;-86
2022/11/06 00:57:47;;;;;;;22.30;11.10;;;;;;;8.65;85.96;100372.63;101450;1283;111201;-86
2022/11/06 01:00:16;;;;;;;18.90;10.90;;;;;;;8.67;86.05;100374.14;101381;1297;107814;-86
2022/11/06 01:02:43;;;;;;;21.80;9.90;;;;;;;8.68;85.87;100370.48;101284;1297;138669;-87
2022/11/06 01:05:11;;;;;;;21.70;10.40;;;;;;;8.69;85.78;100373.73;101366;1292;107635;-85
2022/11/06 01:07:38;;;;;;;20.30;10.60;;;;;;;8.69;85.74;100373.91;101225;1298;139047;-85
2022/11/06 01:10:07;;;;;;;20.10;10.40;;;;;;;8.70;85.70;100381.02;100150;1291;112415;-86
2022/11/06 01:12:34;;;;;;;22.30;10.30;;;;;;;8.69;85.62;100381.71;99812;1291;107560;-87
2022/11/06 01:15:01;;;;;;;24.80;10.90;;;;;;;8.65;85.58;100380.60;99773;1292;137695;-86
2022/11/06 01:17:28;;;;;;;19.70;10.10;;;;;;;8.61;85.46;100384.16;99809;1295;105654;-87
2022/11/06 01:19:56;;;;;;;20.20;10.60;;;;;;;8.57;85.39;100384.06;99762;1287;138570;-87
2022/11/06 01:22:22;;;;;;;19.60;9.70;;;;;;;8.54;85.41;100385.52;99878;1289;111022;-89
2022/11/06 01:24:49;;;;;;;25.90;11.50;;;;;;;8.52;85.43;100388.86;99872;1290;107369;-87
2022/11/06 01:27:17;;;;;;;21.90;11.00;;;;;;;8.50;85.37;100391.68;99913;1296;98038;-84
2022/11/06 01:29:53;;;;;;;24.50;11.40;;;;;;;8.48;85.31;100383.58;99787;1291;107938;-85
2022/11/06 01:32:20;;;;;;;20.30;11.50;;;;;;;8.45;85.19;100387.27;99695;1296;137894;-84
2022/11/06 01:34:48;;;;;;;18.60;11.60;;;;;;;8.40;85.02;100385.63;99867;1283;111536;-86
2022/11/06 01:37:15;;;;;;;23.40;12.20;;;;;;;8.36;85.22;100389.37;99705;1297;138471;-85
2022/11/06 01:39:44;;;;;;;23.50;11.80;;;;;;;8.32;85.41;100388.02;99920;1294;97809;-89
2022/11/06 01:42:13;;;;;;;19.50;12.10;;;;;;;8.29;85.32;100388.95;99805;1289;107572;-88
2022/11/06 01:45:20;;;;;;;18.90;10.70;;;;;;;8.24;85.27;100391.65;99687;1289;139564;-88
2022/11/06 01:47:47;;;;;;;20.40;11.80;;;;;;;8.19;85.27;100388.45;99927;1291;111670;-87
2022/11/06 01:50:16;;;;;;;20.90;11.40;;;;;;;8.16;85.28;100392.70;99707;1297;138427;-88
2022/11/06 01:52:45;;;;;;;24.00;11.70;;;;;;;8.15;85.40;100392.53;99890;1290;97860;-87
2022/11/06 01:55:17;;;;;;;19.90;11.60;;;;;;;8.16;85.52;100387.83;99776;1291;138145;-86
2022/11/06 01:57:45;;;;;;;22.50;11.10;;;;;;;8.14;85.46;100390.81;99883;1297;97727;-86
2022/11/06 02:00:14;;;;;;;27.00;10.30;;;;;;;8.13;85.45;100391.88;99875;1300;110327;-86
2022/11/06 02:02:41;;;;;;;23.00;11.80;;;;;;;8.07;85.39;100391.47;101262;1289;138032;-87
2022/11/06 02:05:10;;;;;;;20.50;11.50;;;;;;;8.03;85.36;100396.21;101396;1290;96129;-87
2022/11/06 02:07:37;;;;;;;24.70;11.90;;;;;;;8.00;85.47;100396.81;101296;1289;138402;-87
2022/11/06 02:10:05;;;;;;;21.30;11.70;;;;;;;7.97;85.47;100393.92;101373;1298;95802;-80
2022/11/06 02:12:44;;;;;;;20.40;11.00;;;;;;;7.94;85.48;100390.36;101405;1290;112720;-80
2022/11/06 02:15:21;;;;;;;21.40;10.50;;;;;;;7.91;85.30;100392.84;100225;1299;138365;-80
2022/11/06 02:18:14;;;;;;;23.40;11.50;;;;;;;7.88;85.43;100392.69;99848;1283;96212;-87
2022/11/06 02:20:52;;;;;;;23.00;12.10;;;;;;;7.88;85.32;100394.60;99684;1291;139650;-86
2022/11/06 02:23:45;;;;;;;21.00;11.00;;;;;;;7.86;85.47;100397.58;99775;1290;97857;-86
2022/11/06 02:26:27;;;;;;;21.60;11.00;;;;;;;7.86;85.51;100399.66;99785;1290;138874;-87
2022/11/06 02:28:58;;;;;;;19.70;10.70;;;;;;;7.85;85.55;100400.02;99813;1289;107051;-87
2022/11/06 02:31:31;;;;;;;18.70;10.50;;;;;;;7.84;85.57;100402.63;99719;1290;139553;-86
2022/11/06 02:34:03;;;;;;;21.40;10.80;;;;;;;7.87;85.63;100406.73;99828;1285;107509;-86
2022/11/06 02:36:33;;;;;;;22.00;11.70;;;;;;;7.86;85.51;100410.90;99754;1285;97826;-87
2022/11/06 02:39:05;;;;;;;24.70;12.50;;;;;;;7.84;85.47;100412.00;99781;1291;138052;-87
2022/11/06 02:41:35;;;;;;;20.70;11.00;;;;;;;7.78;85.43;100414.86;99844;1289;106871;-87
2022/11/06 02:44:07;;;;;;;21.00;12.10;;;;;;;7.75;85.41;100420.48;99679;1292;138395;-87
2022/11/06 02:46:38;;;;;;;24.70;12.30;;;;;;;7.68;85.49;100424.05;99727;1291;108813;-84
2022/11/06 02:49:09;;;;;;;26.60;12.20;;;;;;;7.62;85.52;100428.30;99725;1283;138900;-86
2022/11/06 02:51:42;;;;;;;32.40;12.70;;;;;;;7.56;85.61;100431.54;99892;1291;111149;-88
2022/11/06 02:54:11;;;;;;;23.70;13.50;;;;;;;7.51;85.74;100435.92;99962;1295;108784;-85
2022/11/06 02:56:42;;;;;;;26.70;14.70;;;;;;;7.49;85.99;100437.17;99803;1299;138513;-85
2022/11/06 02:59:15;;;;;;;21.10;13.20;;;;;;;7.46;86.03;100435.66;99863;1300;106227;-85
2022/11/06 03:01:49;;;;;;;20.90;13.10;;;;;;;7.43;86.13;100435.38;100790;1267;97688;-85
2022/11/06 03:04:27;;;;;;;23.30;12.20;;;;;;;7.43;86.24;100441.77;99771;1288;110275;-84
2022/11/06 03:07:01;;;;;;;21.50;12.00;;;;;;;7.42;86.14;100440.59;99922;1297;105869;-84
2022/11/06 03:09:32;;;;;;;21.20;12.70;;;;;;;7.43;86.16;100445.77;99979;1291;98371;-84
2022/11/06 03:12:09;;;;;;;22.80;12.30;;;;;;;7.43;86.27;100442.47;99880;1293;108655;-84
2022/11/06 03:14:43;;;;;;;25.20;12.60;;;;;;;7.43;86.08;100444.38;99918;1288;138952;-80
2022/11/06 03:17:17;;;;;;;21.10;12.60;;;;;;;7.44;86.16;100442.80;100014;1294;111319;-83
2022/11/06 03:19:50;;;;;;;26.70;13.00;;;;;;;7.45;86.05;100447.98;99875;1290;138889;-87
2022/11/06 03:22:25;;;;;;;42.10;13.20;;;;;;;7.44;86.03;100443.16;101527;1291;95954;-86
2022/11/06 03:24:59;;;;;;;25.40;12.20;;;;;;;7.40;85.92;100442.70;101540;1291;107587;-86
2022/11/06 03:27:33;;;;;;;21.70;12.30;;;;;;;7.38;85.92;100439.98;101453;1296;137351;-87
2022/11/06 03:30:06;;;;;;;19.10;12.40;;;;;;;7.36;86.06;100438.95;101072;1289;111183;-84
2022/11/06 03:32:39;;;;;;;27.10;13.10;;;;;;;7.34;86.16;100438.63;99849;1297;140036;-84
2022/11/06 03:35:12;;;;;;;30.20;13.10;;;;;;;7.32;86.05;100436.77;99955;1288;98406;-84
2022/11/06 03:37:44;;;;;;;21.90;12.20;;;;;;;7.30;85.92;100440.43;99776;1290;140177;-84
2022/11/06 03:40:17;;;;;;;24.20;11.80;;;;;;;7.26;85.94;100442.56;99850;1299;97894;-84
2022/11/06 03:42:45;;;;;;;26.00;12.30;;;;;;;7.22;85.96;100450.23;99985;1291;111006;-85
2022/11/06 03:45:16;;;;;;;24.10;12.20;;;;;;;7.20;85.90;100457.89;99774;1289;138359;-85
2022/11/06 03:47:48;;;;;;;27.20;12.40;;;;;;;7.17;85.92;100458.43;100171;1299;97811;-86
2022/11/06 03:50:19;;;;;;;21.20;10.90;;;;;;;7.15;86.04;100461.22;101389;1292;139307;-82
2022/11/06 03:52:53;;;;;;;17.80;10.60;;;;;;;7.13;85.95;100465.23;101555;1294;95946;-86
2022/11/06 03:55:23;;;;;;;18.20;10.70;;;;;;;7.08;85.67;100468.08;101427;1296;139092;-87
2022/11/06 03:57:56;;;;;;;18.90;10.30;;;;;;;7.02;85.70;100470.60;101551;1294;107395;-87
2022/11/06 04:00:23;;;;;;;24.00;10.50;;;;;;;6.97;85.80;100473.41;101569;1294;96192;-87
2022/11/06 04:03:03;;;;;;;19.30;10.30;;;;;;;6.92;85.71;100471.43;101379;1296;138311;-87
2022/11/06 04:05:32;;;;;;;47.80;10.20;;;;;;;6.87;85.86;100473.40;101509;1299;95958;-87
2022/11/06 04:16:30;;;;;;;15.20;9.90;;;;;;;6.72;86.18;100470.64;101021;1293;108106;-84
2022/11/06 04:18:57;;;;;;;51.90;10.70;;;;;;;6.69;86.30;100472.60;101172;1303;96058;-85
2022/11/06 04:21:33;;;;;;;40.20;9.80;;;;;;;6.65;86.23;100473.86;100375;1294;111119;-84
2022/11/06 04:27:20;;;;;;;19.20;9.90;;;;;;;6.61;86.40;100478.73;99596;1298;138447;-85
2022/11/06 04:30:02;;;;;;;17.50;9.40;;;;;;;6.58;86.47;100478.77;99666;1300;107938;-80
2022/11/06 04:32:37;;;;;;;24.50;9.60;;;;;;;6.56;86.45;100475.69;99473;1294;138473;-84
2022/11/06 04:35:10;;;;;;;20.10;10.80;;;;;;;6.55;86.70;100477.25;101186;1305;111239;-84
2022/11/06 04:37:46;;;;;;;19.30;12.00;;;;;;;6.55;86.64;100476.56;101009;1302;139334;-85
2022/11/06 04:40:17;;;;;;;20.40;8.70;;;;;;;6.56;86.85;100473.27;101189;1293;98373;-84
2022/11/06 04:42:53;;;;;;;21.60;9.10;;;;;;;6.56;86.35;100468.96;101128;1295;107587;-84
2022/11/06 04:45:28;;;;;;;13.20;8.50;;;;;;;6.54;86.33;100463.11;100533;1294;138272;-84
2022/11/06 04:47:55;;;;;;;17.60;9.70;;;;;;;6.54;86.27;100461.55;99653;1295;113207;-85
2022/11/06 04:50:25;;;;;;;23.00;8.90;;;;;;;6.56;86.19;100460.13;99873;1296;138334;-85
2022/11/06 04:52:53;;;;;;;15.20;8.80;;;;;;;6.58;86.32;100455.61;100000;1294;98581;-84
2022/11/06 04:55:22;;;;;;;25.50;9.40;;;;;;;6.57;85.98;100456.48;99852;1295;138788;-84
2022/11/06 04:57:49;;;;;;;18.60;9.30;;;;;;;6.54;85.90;100455.86;100001;1292;97784;-84
2022/11/06 05:00:18;;;;;;;19.90;9.40;;;;;;;6.48;86.00;100456.79;99862;1297;113947;-84
2022/11/06 05:02:45;;;;;;;16.80;8.90;;;;;;;6.46;86.00;100457.48;101292;1297;139451;-85
2022/11/06 05:05:12;;;;;;;17.70;8.30;;;;;;;6.43;86.10;100463.73;101518;1300;96038;-84
2022/11/06 05:07:39;;;;;;;18.80;7.60;;;;;;;6.39;85.80;100471.39;101329;1297;138697;-85
2022/11/06 05:10:07;;;;;;;19.20;8.10;;;;;;;6.35;85.79;100464.36;101525;1294;95959;-85
2022/11/06 05:12:33;;;;;;;15.10;8.00;;;;;;;6.34;85.77;100467.66;101486;1297;111633;-85
2022/11/06 05:15:00;;;;;;;12.00;7.70;;;;;;;6.34;85.79;100470.42;101369;1289;140406;-85
2022/11/06 05:17:27;;;;;;;17.10;7.50;;;;;;;6.32;85.83;100474.25;101488;1281;95952;-81
2022/11/06 05:20:01;;;;;;;22.90;8.10;;;;;;;6.32;85.69;100475.11;101399;1292;137771;-81
2022/11/06 05:25:12;;;;;;;23.20;7.50;;;;;;;6.27;85.67;100476.37;101471;1291;138209;-81
2022/11/06 05:27:39;;;;;;;10.60;7.40;;;;;;;6.22;85.47;100479.71;101479;1289;106344;-81
2022/11/06 05:30:07;;;;;;;35.80;8.70;;;;;;;6.19;85.56;100480.08;101502;1292;96034;-81
2022/11/06 05:32:34;;;;;;;23.30;8.60;;;;;;;6.18;85.59;100485.62;101363;1279;138175;-81
2022/11/06 05:35:01;;;;;;;21.40;9.20;;;;;;;6.18;85.70;100483.55;101495;1302;96029;-81
2022/11/06 05:37:28;;;;;;;13.50;8.70;;;;;;;6.18;85.78;100485.27;101413;1295;139023;-81
2022/11/06 05:39:55;;;;;;;16.80;9.00;;;;;;;6.18;85.62;100489.08;101479;1294;107205;-81
2022/11/06 05:42:22;;;;;;;15.30;8.80;;;;;;;6.16;85.59;100494.10;101486;1289;96158;-81
2022/11/06 05:44:49;;;;;;;15.20;9.20;;;;;;;6.17;85.28;100491.84;101420;1297;138351;-82
2022/11/06 05:47:16;;;;;;;40.90;9.60;;;;;;;6.16;85.33;100491.17;101422;1297;95684;-82
2022/11/06 05:49:42;;;;;;;30.80;9.60;;;;;;;6.14;85.21;100494.99;99843;1289;137983;-82
2022/11/06 05:52:09;;;;;;;44.00;9.00;;;;;;;6.08;84.89;100500.20;99860;1289;107232;-82
2022/11/06 05:54:36;;;;;;;16.30;9.30;;;;;;;6.00;84.92;100502.89;99898;1295;97813;-82
2022/11/06 05:57:03;;;;;;;14.70;9.60;;;;;;;5.96;85.27;100502.42;99805;1298;138460;-83
2022/11/06 05:59:30;;;;;;;24.40;8.80;;;;;;;5.96;85.29;100512.26;99927;1295;97805;-82
2022/11/06 06:01:58;;;;;;;32.50;9.90;;;;;;;5.95;85.40;100511.92;99813;1292;138679;-80
2022/11/06 06:04:26;;;;;;;13.00;9.20;;;;;;;5.89;85.25;100512.63;99890;1298;107691;-81
2022/11/06 06:06:53;;;;;;;16.50;10.10;;;;;;;5.87;85.32;100517.80;99880;1288;97936;-81
2022/11/06 06:09:20;;;;;;;24.10;10.90;;;;;;;5.88;85.55;100524.88;99782;1298;138329;-85
2022/11/06 06:11:50;;;;;;;22.00;10.00;;;;;;;5.87;85.59;100529.38;99887;1295;97793;-81
2022/11/06 06:14:16;;;;;;;32.30;11.20;;;;;;;5.86;85.61;100521.27;99810;1296;138189;-81
2022/11/06 06:16:44;;;;;;;41.20;11.10;;;;;;;5.89;85.90;100522.63;99872;1302;107141;-81
2022/11/06 06:19:10;;;;;;;23.30;10.80;;;;;;;5.91;85.60;100525.90;99903;1295;136763;-83
2022/11/06 06:21:37;;;;;;;17.90;10.80;;;;;;;5.90;85.56;100529.37;99941;1297;106679;-78
2022/11/06 06:24:05;;;;;;;20.40;10.50;;;;;;;5.89;85.84;100532.82;99853;1298;97842;-78
2022/11/06 06:26:32;;;;;;;22.30;11.50;;;;;;;5.94;85.97;100535.57;99872;1287;138360;-78
2022/11/06 06:29:00;;;;;;;33.30;10.50;;;;;;;5.95;86.19;100537.11;99917;1290;107696;-81
2022/11/06 06:31:27;;;;;;;26.10;11.50;;;;;;;5.98;85.95;100543.64;99873;1297;138985;-83
2022/11/06 06:33:54;;;;;;;33.90;11.10;;;;;;;5.96;86.01;100543.84;99870;1293;107479;-75
2022/11/06 06:36:21;;;;;;;34.20;11.10;;;;;;;5.95;85.73;100550.40;99877;1290;97846;-81
2022/11/06 06:38:48;;;;;;;24.80;10.70;;;;;;;5.91;85.63;100555.08;99847;1295;138332;-75
2022/11/06 06:41:15;;;;;;;18.70;10.60;;;;;;;5.88;85.51;100551.80;100006;1283;107730;-79
2022/11/06 06:43:42;;;;;;;21.40;10.20;;;;;;;5.85;85.77;100555.61;99828;1295;139019;-77
2022/11/06 06:46:09;;;;;;;19.00;10.00;;;;;;;5.88;85.77;100557.31;99912;1297;106991;-81
2022/11/06 06:48:36;;;;;;;18.60;10.40;;;;;;;5.89;85.76;100558.17;99905;1295;97691;-83
2022/11/06 06:51:04;;;;;;;24.10;10.10;;;;;;;5.92;85.81;100556.98;99863;1288;138889;-81
2022/11/06 06:53:31;;;;;;;22.60;10.30;;;;;;;5.93;85.55;100559.73;99924;1297;107476;-80
2022/11/06 06:56:00;;;;;;;33.30;10.50;;;;;;;5.95;85.29;100562.48;99927;1289;140315;-85
2022/11/06 06:58:28;;;;;;;38.70;10.80;;;;;;;5.94;85.23;100563.88;99943;1297;106808;-86
2022/11/06 07:00:55;;;;;;;43.40;11.50;;;;;;;5.96;85.20;100566.62;99923;1303;97813;-85
2022/11/06 07:03:22;;;;;;;35.90;11.80;;;;;;;5.96;85.10;100568.01;101139;1282;137621;-80
2022/11/06 07:05:49;;;;;;;53.80;12.70;;;;;;;5.96;85.22;100573.35;99900;1289;107841;-68
2022/11/06 07:08:16;;;;;;;42.70;11.80;;;;;;;5.92;84.72;100568.02;99849;1290;138929;-69
2022/11/06 07:10:43;;;;;;;22.70;12.00;;;;;;;5.90;84.95;100570.61;99969;1281;107173;-69
2022/11/06 07:13:10;;;;;;;36.00;12.00;;;;;;;5.95;85.38;100570.77;99943;1291;140512;-68
2022/11/06 07:15:37;;;;;;;38.20;12.60;;;;;;;5.98;85.16;100568.67;101379;1292;110580;-71
2022/11/06 07:18:06;;;;;;;41.60;12.40;;;;;;;5.98;85.31;100564.18;101418;1289;107180;-78
2022/11/06 07:20:34;;;;;;;28.60;12.50;;;;;;;6.01;85.69;100571.58;101349;1297;138619;-78
2022/11/06 07:23:04;;;;;;;32.30;13.10;;;;;;;6.10;86.00;100573.40;101462;1294;107825;-78
2022/11/06 07:25:31;;;;;;;35.40;12.10;;;;;;;6.17;85.87;100575.23;101354;1289;140388;-83
2022/11/06 07:28:02;;;;;;;32.00;12.20;;;;;;;6.21;85.75;100575.70;101434;1284;109534;-80
2022/11/06 07:30:29;;;;;;;15.50;8.90;;;;;;;6.29;86.03;100576.51;101372;1280;108496;-81
2022/11/06 07:32:56;;;;;;;11.60;9.20;;;;;;;6.36;85.61;100580.92;101238;1298;138559;-81
2022/11/06 07:35:23;;;;;;;24.40;9.30;;;;;;;6.41;85.23;100578.10;101418;1294;107558;-79
2022/11/06 07:37:50;;;;;;;12.80;9.40;;;;;;;6.43;84.81;100577.58;101374;1300;138399;-79
2022/11/06 07:40:17;;;;;;;32.40;9.30;;;;;;;6.45;84.65;100576.67;101458;1289;111516;-80
2022/11/06 07:42:44;;;;;;;34.80;9.60;;;;;;;6.46;84.53;100576.85;101435;1288;106915;-81
2022/11/06 07:45:14;;;;;;;22.60;10.60;;;;;;;6.50;84.43;100581.14;101165;1281;138471;-80
2022/11/06 07:47:40;;;;;;;23.10;10.00;;;;;;;6.54;84.72;100585.75;101416;1289;105449;-81
2022/11/06 07:50:08;;;;;;;30.90;9.10;;;;;;;6.63;85.11;100583.41;101360;1287;140407;-85
2022/11/06 07:52:35;;;;;;;26.40;9.60;;;;;;;6.73;84.97;100582.45;101478;1295;111755;-77
2022/11/06 07:55:02;;;;;;;24.30;9.50;;;;;;;6.77;84.57;100583.09;101480;1295;107740;-78
2022/11/06 07:57:29;;;;;;;15.10;10.80;;;;;;;6.77;84.49;100586.02;101527;1289;95932;-75
2022/11/06 07:59:56;;;;;;;18.30;9.90;;;;;;;6.81;84.71;100585.98;101535;1294;107357;-76
2022/11/06 08:02:23;;;;;;;24.60;10.90;;;;;;;6.85;84.68;100584.73;101312;1297;138344;-77
2022/11/06 08:04:50;;;;;;;18.20;10.40;;;;;;;6.90;84.87;100585.19;101450;1299;112488;-79
2022/11/06 08:07:18;;;;;;;37.60;9.90;;;;;;;6.97;85.11;100586.65;101306;1297;139302;-84
2022/11/06 08:09:45;;;;;;;18.20;9.70;;;;;;;6.99;84.61;100588.17;101419;1292;96597;-77
2022/11/06 08:12:13;;;;;;;34.60;10.50;;;;;;;7.01;84.47;100589.55;101457;1288;106498;-76
2022/11/06 08:14:40;;;;;;;25.40;10.50;;;;;;;7.04;84.47;100590.73;101355;1289;138766;-79
2022/11/06 08:17:07;;;;;;;33.40;11.00;;;;;;;7.07;84.30;100593.63;101471;1289;110600;-77
2022/11/06 08:19:34;;;;;;;26.80;10.90;;;;;;;7.07;84.08;100589.14;101314;1289;138856;-77
2022/11/06 08:22:02;;;;;;;18.20;11.70;;;;;;;7.10;84.17;100586.66;101436;1291;96578;-85
2022/11/06 08:24:29;;;;;;;26.80;10.60;;;;;;;7.17;84.54;100592.64;101403;1289;108282;-79
2022/11/06 08:26:57;;;;;;;23.20;11.20;;;;;;;7.22;84.09;100596.39;101321;1297;138832;-77
2022/11/06 08:29:23;;;;;;;17.90;11.30;;;;;;;7.20;83.88;100598.48;101442;1282;111653;-77
2022/11/06 08:31:50;;;;;;;25.40;11.30;;;;;;;7.22;84.25;100599.48;101312;1288;138718;-81
2022/11/06 08:34:17;;;;;;;26.60;11.80;;;;;;;7.26;84.06;100601.85;101436;1297;97142;-78
2022/11/06 08:36:45;;;;;;;26.40;10.60;;;;;;;7.32;83.80;100598.15;101411;1289;107857;-78
2022/11/06 08:39:15;;;;;;;44.80;10.00;;;;;;;7.30;83.44;100596.61;101295;1287;139772;-77
2022/11/06 08:41:43;;;;;;;19.00;10.60;;;;;;;7.29;83.33;100597.50;101483;1289;112750;-80
2022/11/06 08:44:10;;;;;;;28.60;11.10;;;;;;;7.33;83.57;100597.09;101212;1291;138947;-79
2022/11/06 08:46:37;;;;;;;41.80;10.30;;;;;;;7.42;83.76;100593.00;101392;1288;96119;-74
2022/11/06 08:49:04;;;;;;;32.60;11.20;;;;;;;7.50;83.49;100593.05;101375;1290;107945;-77
2022/11/06 08:51:31;;;;;;;19.50;10.00;;;;;;;7.57;83.47;100586.38;101409;1297;95946;-79
2022/11/06 08:53:58;;;;;;;17.80;9.20;;;;;;;7.62;83.05;100587.70;100885;1290;111213;-79
2022/11/06 08:56:25;;;;;;;40.20;10.90;;;;;;;7.59;82.78;100588.27;99722;1286;138188;-77
2022/11/06 08:58:52;;;;;;;33.20;10.90;;;;;;;7.63;83.02;100583.70;99807;1288;97727;-79
2022/11/06 09:01:22;;;;;;;22.60;11.10;;;;;;;7.65;82.86;100586.78;99743;1281;137686;-78
2022/11/06 09:03:50;;;;;;;49.00;11.40;;;;;;;7.70;83.28;100586.36;99738;1288;97823;-76
2022/11/06 09:06:16;;;;;;;34.40;12.10;;;;;;;7.76;83.26;100584.55;99818;1288;112119;-74
2022/11/06 09:08:44;;;;;;;48.20;11.90;;;;;;;7.77;83.07;100580.20;99648;1283;137711;-75
2022/11/06 09:11:11;;;;;;;39.10;11.30;;;;;;;7.83;82.91;100579.23;99800;1287;98089;-78
2022/11/06 09:13:39;;;;;;;27.20;11.10;;;;;;;7.86;82.72;100581.95;99740;1289;138577;-78
2022/11/06 09:16:07;;;;;;;20.30;11.20;;;;;;;7.83;82.58;100582.02;99727;1289;97813;-77
2022/11/06 09:18:41;;;;;;;17.90;11.30;;;;;;;7.77;82.64;100586.42;99827;1288;111995;-82
2022/11/06 09:21:09;;;;;;;23.60;14.40;;;;;;;7.77;82.87;100590.25;99760;1288;138504;-81
2022/11/06 09:23:36;;;;;;;20.30;11.90;;;;;;;7.80;83.52;100593.65;99856;1298;98007;-78
2022/11/06 09:26:03;;;;;;;23.10;13.20;;;;;;;7.85;83.80;100594.77;99759;1289;138249;-80
2022/11/06 09:28:30;;;;;;;20.10;12.30;;;;;;;7.99;84.27;100597.86;99932;1297;97849;-80
2022/11/06 09:30:57;;;;;;;30.00;12.10;;;;;;;8.11;83.86;100595.07;99928;1292;110665;-80
2022/11/06 09:33:24;;;;;;;16.20;11.70;;;;;;;8.15;83.56;100594.48;99765;1298;138194;-80
2022/11/06 09:35:51;;;;;;;17.40;12.30;;;;;;;8.23;83.56;100598.15;99939;1298;98324;-80
2022/11/06 09:38:18;;;;;;;15.30;11.50;;;;;;;8.30;83.36;100600.47;99837;1290;138191;-80
2022/11/06 09:40:52;;;;;;;18.40;10.90;;;;;;;8.40;83.25;100603.60;99943;1298;97895;-81
2022/11/06 09:43:41;;;;;;;15.80;10.80;;;;;;;8.52;83.16;100604.62;99814;1295;138487;-80
2022/11/06 09:46:32;;;;;;;15.30;11.20;;;;;;;8.65;82.92;100604.90;99863;1289;106005;-80
2022/11/06 09:49:07;;;;;;;16.40;11.30;;;;;;;8.75;82.95;100607.30;99943;1298;97828;-80
2022/11/06 09:51:40;;;;;;;17.50;12.40;;;;;;;8.74;82.22;100606.63;99930;1305;106928;-79
2022/11/06 09:54:16;;;;;;;20.10;12.10;;;;;;;8.70;82.17;100608.27;99905;1298;97824;-80
2022/11/06 09:56:45;;;;;;;19.80;13.30;;;;;;;8.72;82.05;100604.59;99893;1290;137900;-80
2022/11/06 09:59:17;;;;;;;17.90;12.80;;;;;;;8.67;81.86;100608.15;100027;1280;107350;-82
2022/11/06 10:01:48;;;;;;;31.50;13.70;;;;;;;8.70;82.24;100610.70;99812;1298;138127;-78
2022/11/06 10:04:29;;;;;;;19.70;13.20;;;;;;;8.75;82.71;100613.55;99956;1287;108335;-79
2022/11/06 10:06:56;;;;;;;24.90;13.40;;;;;;;8.84;82.91;100608.54;99949;1288;97857;-79
2022/11/06 10:09:23;;;;;;;21.90;13.20;;;;;;;8.85;82.24;100607.98;99831;1289;137643;-79
2022/11/06 10:12:07;;;;;;;17.80;12.70;;;;;;;8.82;82.06;100607.38;99949;1287;107522;-80
2022/11/06 10:14:46;;;;;;;19.20;12.20;;;;;;;8.88;82.35;100606.20;99827;1282;138446;-80
2022/11/06 10:17:27;;;;;;;15.90;12.30;;;;;;;8.95;82.23;100608.81;100022;1289;107480;-80
2022/11/06 10:20:05;;;;;;;18.50;12.80;;;;;;;8.93;81.33;100608.17;99844;1291;138297;-80
2022/11/06 10:22:38;;;;;;;19.70;13.20;;;;;;;8.91;81.42;100608.91;99917;1297;111747;-80
2022/11/06 10:25:18;;;;;;;21.40;13.30;;;;;;;8.98;82.09;100610.16;99908;1298;107760;-80
2022/11/06 10:27:56;;;;;;;19.70;13.70;;;;;;;9.05;82.18;100606.88;99932;1298;97815;-80
2022/11/06 10:30:24;;;;;;;19.80;13.00;;;;;;;9.14;82.23;100609.48;99983;1298;107862;-80
2022/11/06 10:33:12;;;;;;;21.10;13.10;;;;;;;9.16;81.60;100607.39;99810;1298;139762;-80
2022/11/06 10:35:43;;;;;;;17.60;12.40;;;;;;;9.05;80.95;100604.46;99963;1298;110873;-80
2022/11/06 10:38:14;;;;;;;22.10;13.50;;;;;;;9.06;81.36;100601.31;99843;1291;138402;-81
2022/11/06 10:40:47;;;;;;;24.20;14.40;;;;;;;9.13;81.61;100598.75;100005;1295;98322;-80
2022/11/06 10:43:26;;;;;;;20.20;12.90;;;;;;;9.20;81.54;100594.45;99905;1296;137786;-80
2022/11/06 10:45:58;;;;;;;24.00;14.60;;;;;;;9.24;81.35;100595.24;99993;1298;97825;-80
2022/11/06 10:48:29;;;;;;;19.40;13.60;;;;;;;9.31;81.78;100593.50;99967;1297;110926;-80
2022/11/06 10:51:14;;;;;;;20.00;14.20;;;;;;;9.45;81.83;100591.80;99784;1295;138342;-80
2022/11/06 10:53:52;;;;;;;26.30;13.30;;;;;;;9.48;80.42;100591.75;99979;1291;98305;-81
2022/11/06 10:56:46;;;;;;;20.50;13.60;;;;;;;9.37;79.68;100589.05;100265;1298;137562;-78
2022/11/06 10:59:13;;;;;;;21.60;13.80;;;;;;;9.30;80.13;100584.49;99971;1298;97883;-81
2022/11/06 11:01:40;;;;;;;23.10;13.90;;;;;;;9.26;80.10;100579.21;99837;1291;138468;-78
2022/11/06 11:04:08;;;;;;;25.10;13.60;;;;;;;9.29;80.47;100577.24;99927;1292;107545;-79
2022/11/06 11:06:34;;;;;;;22.40;14.40;;;;;;;9.34;80.61;100574.71;99947;1298;97860;-80
2022/11/06 11:09:01;;;;;;;21.90;14.40;;;;;;;9.41;81.04;100573.52;99857;1295;138338;-82
2022/11/06 11:11:29;;;;;;;24.30;14.30;;;;;;;9.53;81.05;100575.67;99915;1287;97699;-80
2022/11/06 11:14:14;;;;;;;22.50;14.80;;;;;;;9.59;80.64;100572.23;99870;1290;137994;-81
2022/11/06 11:16:44;;;;;;;23.60;15.60;;;;;;;9.61;80.04;100564.38;99877;1292;108168;-80
2022/11/06 11:19:25;;;;;;;25.30;15.10;;;;;;;9.63;79.93;100561.55;99813;1296;138003;-80
2022/11/06 11:21:57;;;;;;;23.70;15.10;;;;;;;9.65;79.86;100558.55;99887;1292;107534;-80
2022/11/06 11:24:24;;;;;;;23.60;15.20;;;;;;;9.73;80.47;100555.43;101466;1274;95607;-80
2022/11/06 11:26:54;;;;;;;23.20;14.40;;;;;;;9.91;81.02;100549.94;101423;1289;138228;-81
2022/11/06 11:29:26;;;;;;;25.00;14.80;;;;;;;10.10;80.60;100548.59;101445;1289;106956;-80
2022/11/06 11:31:56;;;;;;;19.90;14.10;;;;;;;10.27;80.37;100542.79;100840;1289;138808;-80
2022/11/06 11:34:25;;;;;;;22.30;14.20;;;;;;;10.46;80.25;100540.39;99869;1291;107217;-81
2022/11/06 11:36:59;;;;;;;20.00;12.80;;;;;;;10.77;80.41;100541.78;99942;1295;97817;-82
2022/11/06 11:39:30;;;;;;;21.80;12.30;;;;;;;11.10;79.68;100541.36;99852;1299;137963;-80